createdAt,value
2023-07-26T00:01:07.957Z,78.38
2023-07-26T00:03:34.887Z,78.15
2023-07-26T00:06:02.459Z,78.88
2023-07-26T00:08:29.408Z,78.96
2023-07-26T00:10:57.216Z,79.21
2023-07-26T00:13:24.132Z,79.58
2023-07-26T00:15:51.189Z,80.04
2023-07-26T00:18:18.111Z,80.16
2023-07-26T00:20:45.182Z,80.05
2023-07-26T00:23:12.045Z,80.13
2023-07-26T00:25:38.927Z,80.29
2023-07-26T00:28:05.776Z,80.04
2023-07-26T00:30:32.759Z,80.95
2023-07-26T00:32:59.811Z,81.52
2023-07-26T00:35:29.608Z,81.93
2023-07-26T00:37:56.671Z,81.70
2023-07-26T00:40:25.471Z,82.16
2023-07-26T00:42:52.391Z,81.95
2023-07-26T00:45:19.405Z,82.06
2023-07-26T00:47:47.022Z,82.18
2023-07-26T00:50:14.127Z,82.74
2023-07-26T00:52:41.423Z,82.59
2023-07-26T00:55:09.111Z,82.32
2023-07-26T00:57:36.200Z,82.15
2023-07-26T01:00:03.978Z,82.20
2023-07-26T01:02:32.805Z,82.45
2023-07-26T01:05:00.202Z,82.71
2023-07-26T01:07:46.523Z,83.06
2023-07-26T01:10:36.621Z,82.62
2023-07-26T01:13:16.167Z,82.47
2023-07-26T01:15:47.585Z,82.64
2023-07-26T01:18:16.371Z,82.76
2023-07-26T01:20:44.652Z,82.88
2023-07-26T01:23:12.115Z,83.23
2023-07-26T01:25:39.093Z,83.13
2023-07-26T01:28:06.157Z,83.59
2023-07-26T01:30:34.295Z,83.59
2023-07-26T01:33:05.663Z,83.59
2023-07-26T01:35:33.698Z,83.41
2023-07-26T01:38:02.342Z,83.34
2023-07-26T01:40:29.481Z,83.26
2023-07-26T01:42:57.586Z,83.05
2023-07-26T01:45:24.515Z,83.78
2023-07-26T01:47:54.484Z,83.75
2023-07-26T01:50:21.596Z,84.56
2023-07-26T01:52:48.675Z,83.87
2023-07-26T01:55:15.730Z,84.00
2023-07-26T01:57:42.696Z,83.74
2023-07-26T02:00:11.369Z,83.80
2023-07-26T02:02:40.972Z,83.53
2023-07-26T02:05:08.266Z,83.29
2023-07-26T02:07:35.338Z,82.91
2023-07-26T02:10:02.431Z,82.25
2023-07-26T02:12:29.341Z,82.66
2023-07-26T02:14:56.377Z,82.84
2023-07-26T02:17:23.546Z,82.57
2023-07-26T02:19:50.568Z,81.90
2023-07-26T02:22:17.512Z,81.87
2023-07-26T02:24:44.632Z,82.18
2023-07-26T02:27:11.575Z,82.00
2023-07-26T02:29:38.973Z,82.47
2023-07-26T02:32:06.259Z,82.43
2023-07-26T02:34:33.247Z,82.73
2023-07-26T02:37:00.341Z,83.18
2023-07-26T02:39:27.287Z,83.85
2023-07-26T02:41:54.222Z,83.60
2023-07-26T02:44:21.110Z,84.01
2023-07-26T02:46:48.048Z,84.36
2023-07-26T02:49:15.396Z,84.05
2023-07-26T02:51:42.421Z,83.98
2023-07-26T02:54:09.543Z,84.70
2023-07-26T02:56:36.444Z,84.83
2023-07-26T02:59:03.396Z,84.44
2023-07-26T03:01:30.540Z,84.45
2023-07-26T03:03:58.242Z,85.05
2023-07-26T03:06:25.161Z,84.83
2023-07-26T03:08:52.106Z,85.00
2023-07-26T03:11:19.304Z,84.85
2023-07-26T03:13:46.177Z,84.77
2023-07-26T03:16:17.329Z,84.66
2023-07-26T03:18:44.940Z,84.73
2023-07-26T03:21:11.881Z,84.72
2023-07-26T03:23:39.275Z,84.66
2023-07-26T03:26:06.600Z,84.68
2023-07-26T03:28:33.773Z,84.16
2023-07-26T03:31:01.482Z,84.15
2023-07-26T03:33:28.745Z,84.04
2023-07-26T03:35:55.717Z,84.44
2023-07-26T03:38:22.709Z,84.76
2023-07-26T03:40:49.688Z,84.82
2023-07-26T03:43:16.717Z,84.25
2023-07-26T03:45:43.924Z,84.44
2023-07-26T03:48:10.857Z,84.71
2023-07-26T03:50:37.878Z,84.51
2023-07-26T03:53:07.858Z,85.32
2023-07-26T03:55:37.325Z,85.26
2023-07-26T03:58:04.226Z,84.30
2023-07-26T04:00:31.405Z,84.37
2023-07-26T04:02:58.562Z,84.34
2023-07-26T04:05:25.600Z,84.50
2023-07-26T04:07:52.607Z,83.62
2023-07-26T04:10:19.638Z,83.89
2023-07-26T04:12:46.479Z,84.41
2023-07-26T04:15:13.543Z,83.84
2023-07-26T04:17:40.527Z,84.13
2023-07-26T04:20:08.001Z,83.95
2023-07-26T04:22:34.897Z,84.19
2023-07-26T04:25:01.987Z,84.27
2023-07-26T04:27:28.958Z,84.01
2023-07-26T04:29:56.014Z,83.96
2023-07-26T04:32:23.029Z,84.02
2023-07-26T04:34:49.964Z,83.42
2023-07-26T04:37:17.045Z,83.50
2023-07-26T04:39:47.448Z,83.07
2023-07-26T04:42:14.389Z,83.09
2023-07-26T04:44:41.265Z,82.95
2023-07-26T04:47:08.387Z,82.52
2023-07-26T04:49:35.385Z,82.12
2023-07-26T04:52:02.293Z,81.80
2023-07-26T04:54:29.285Z,81.90
2023-07-26T04:56:56.622Z,82.11
2023-07-26T04:59:23.566Z,82.43
2023-07-26T05:01:50.623Z,82.46
2023-07-26T05:04:18.315Z,82.32
2023-07-26T05:06:45.418Z,82.08
2023-07-26T05:09:12.323Z,81.64
2023-07-26T05:11:39.232Z,81.90
2023-07-26T05:14:06.341Z,82.01
2023-07-26T05:16:33.317Z,82.34
2023-07-26T05:19:01.065Z,81.96
2023-07-26T05:21:28.176Z,81.81
2023-07-26T05:23:55.145Z,80.89
2023-07-26T05:26:22.216Z,81.40
2023-07-26T05:28:49.252Z,80.99
2023-07-26T05:31:16.287Z,80.67
2023-07-26T05:33:43.265Z,80.97
2023-07-26T05:36:10.268Z,80.51
2023-07-26T05:38:37.211Z,81.11
2023-07-26T05:41:05.717Z,80.66
2023-07-26T05:43:33.064Z,80.82
2023-07-26T05:46:02.436Z,80.84
2023-07-26T05:48:29.293Z,80.11
2023-07-26T05:50:56.754Z,79.66
2023-07-26T05:53:23.779Z,79.63
2023-07-26T05:55:50.959Z,80.33
2023-07-26T05:58:18.973Z,79.70
2023-07-26T06:00:46.152Z,78.96
2023-07-26T06:03:13.220Z,79.06
2023-07-26T06:05:41.536Z,78.60
2023-07-26T06:08:09.003Z,78.03
2023-07-26T06:10:36.042Z,78.26
2023-07-26T06:13:03.676Z,77.65
2023-07-26T06:15:31.469Z,77.02
2023-07-26T06:17:58.564Z,77.10
2023-07-26T06:20:25.712Z,76.50
2023-07-26T06:22:53.348Z,75.64
2023-07-26T06:25:24.620Z,76.17
2023-07-26T06:27:59.768Z,75.82
2023-07-26T06:30:28.356Z,76.12
2023-07-26T06:32:55.537Z,75.90
2023-07-26T06:35:22.824Z,75.31
2023-07-26T06:37:51.417Z,74.73
2023-07-26T06:40:18.854Z,75.08
2023-07-26T06:42:46.032Z,74.45
2023-07-26T06:45:17.809Z,74.53
2023-07-26T06:47:46.549Z,75.16
2023-07-26T06:50:14.362Z,75.40
2023-07-26T06:52:42.016Z,74.69
2023-07-26T06:55:09.173Z,74.71
2023-07-26T06:57:36.103Z,75.15
2023-07-26T07:00:03.311Z,74.82
2023-07-26T07:02:30.333Z,74.26
2023-07-26T07:04:58.227Z,73.98
2023-07-26T07:07:25.148Z,73.28
2023-07-26T07:09:52.133Z,73.70
2023-07-26T07:12:19.080Z,73.34
2023-07-26T07:14:45.980Z,72.95
2023-07-26T07:17:12.997Z,72.45
2023-07-26T07:19:39.942Z,72.32
2023-07-26T07:22:06.794Z,72.43
2023-07-26T07:24:37.842Z,71.36
2023-07-26T07:27:05.103Z,71.41
2023-07-26T07:29:34.228Z,71.57
2023-07-26T07:32:16.204Z,70.76
2023-07-26T07:34:48.625Z,70.57
2023-07-26T07:37:15.627Z,69.72
2023-07-26T07:39:42.670Z,70.09
2023-07-26T07:42:09.512Z,69.07
2023-07-26T07:44:36.450Z,68.24
2023-07-26T07:47:05.698Z,68.25
2023-07-26T07:49:33.699Z,67.63
2023-07-26T07:52:00.985Z,66.95
2023-07-26T07:54:27.856Z,66.81
2023-07-26T07:56:54.719Z,66.51
2023-07-26T07:59:22.154Z,66.51
2023-07-26T08:01:49.380Z,66.11
2023-07-26T08:04:31.707Z,66.08
2023-07-26T08:06:59.630Z,65.56
2023-07-26T08:09:27.125Z,64.20
2023-07-26T08:11:54.257Z,64.80
2023-07-26T08:14:21.134Z,64.64
2023-07-26T08:16:48.305Z,63.84
2023-07-26T08:19:15.336Z,62.68
2023-07-26T08:21:42.420Z,62.51
2023-07-26T08:24:09.243Z,61.88
2023-07-26T08:26:36.801Z,58.80
2023-07-26T08:29:03.707Z,60.90
2023-07-26T08:31:30.782Z,61.30
2023-07-26T08:33:57.970Z,61.70
2023-07-26T08:36:25.298Z,61.15
2023-07-26T08:38:52.266Z,62.09
2023-07-26T08:41:19.298Z,60.60
2023-07-26T08:43:49.325Z,60.80
2023-07-26T08:46:17.064Z,61.16
2023-07-26T08:48:44.314Z,60.25
2023-07-26T08:51:11.671Z,61.08
2023-07-26T08:53:41.291Z,59.78
2023-07-26T08:56:09.518Z,59.10
2023-07-26T08:58:36.626Z,60.29
2023-07-26T09:01:03.943Z,60.00
2023-07-26T09:03:30.973Z,60.18
2023-07-26T09:06:06.843Z,60.27
2023-07-26T09:08:34.343Z,57.60
2023-07-26T09:11:04.409Z,58.76
2023-07-26T09:13:32.059Z,60.44
2023-07-26T09:16:01.775Z,59.85
2023-07-26T09:18:29.675Z,59.24
2023-07-26T09:21:06.064Z,58.72
2023-07-26T09:23:51.407Z,58.92
2023-07-26T09:26:36.193Z,58.27
2023-07-26T09:29:09.520Z,59.52
2023-07-26T09:31:38.266Z,59.69
2023-07-26T09:34:09.462Z,59.44
2023-07-26T09:36:49.660Z,59.73
2023-07-26T09:39:19.777Z,58.82
2023-07-26T09:41:47.610Z,58.14
2023-07-26T09:44:20.136Z,56.74
2023-07-26T09:46:51.324Z,56.49
2023-07-26T09:54:33.470Z,56.47
2023-07-26T09:57:02.543Z,57.29
2023-07-26T09:59:31.543Z,57.84
2023-07-26T10:02:03.651Z,58.55
2023-07-26T10:04:50.510Z,59.32
2023-07-26T10:07:18.227Z,60.20
2023-07-26T10:09:48.680Z,59.67
2023-07-26T10:12:16.627Z,58.84
2023-07-26T10:14:44.056Z,58.98
2023-07-26T10:17:14.434Z,58.49
2023-07-26T10:19:42.736Z,58.98
2023-07-26T10:22:11.020Z,58.45
2023-07-26T10:24:39.884Z,59.08
2023-07-26T10:27:07.592Z,57.35
2023-07-26T10:29:34.663Z,56.15
2023-07-26T10:32:07.651Z,56.46
2023-07-26T10:34:35.519Z,57.10
2023-07-26T10:37:19.866Z,58.38
2023-07-26T10:39:47.591Z,57.39
2023-07-26T10:42:24.381Z,58.62
2023-07-26T10:44:53.255Z,59.96
2023-07-26T10:47:21.751Z,59.40
2023-07-26T10:49:50.108Z,60.48
2023-07-26T10:52:17.763Z,60.16
2023-07-26T10:54:52.321Z,60.13
2023-07-26T10:57:28.393Z,58.97
2023-07-26T11:00:00.858Z,58.46
2023-07-26T11:02:44.804Z,58.25
2023-07-26T11:05:19.986Z,57.37
2023-07-26T11:08:04.081Z,55.35
2023-07-26T11:10:31.111Z,49.31
2023-07-26T11:13:08.921Z,48.13
2023-07-26T11:16:12.921Z,44.62
2023-07-26T11:18:27.856Z,41.66
2023-07-26T11:20:56.273Z,41.90
2023-07-26T11:23:27.163Z,36.79
2023-07-26T11:25:56.829Z,37.74
2023-07-26T11:28:26.278Z,35.50
2023-07-26T11:30:55.234Z,31.27
2023-07-26T11:33:42.645Z,32.77
2023-07-26T11:36:09.788Z,31.95
2023-07-26T11:38:42.970Z,33.67
2023-07-26T11:41:10.104Z,31.05
2023-07-26T11:43:39.679Z,30.85
2023-07-26T11:46:06.746Z,29.12
2023-07-26T11:48:35.154Z,28.18
2023-07-26T11:51:04.867Z,24.23
2023-07-26T11:53:43.994Z,25.24
2023-07-26T11:56:12.360Z,23.97
2023-07-26T11:58:39.582Z,24.64
2023-07-26T12:01:07.385Z,29.30
2023-07-26T12:03:34.640Z,32.96
2023-07-26T12:06:06.556Z,34.19
2023-07-26T12:08:36.779Z,38.54
2023-07-26T12:11:07.898Z,39.66
2023-07-26T12:13:36.483Z,41.79
2023-07-26T12:16:05.030Z,43.40
2023-07-26T12:18:32.583Z,43.60
2023-07-26T12:21:06.870Z,43.29
2023-07-26T12:23:55.455Z,43.38
2023-07-26T12:26:26.900Z,43.84
2023-07-26T12:28:55.613Z,44.80
2023-07-26T12:31:28.923Z,45.06
2023-07-26T12:34:01.446Z,46.39
2023-07-26T12:36:31.615Z,46.01
2023-07-26T12:38:59.505Z,45.91
2023-07-26T12:41:27.273Z,46.83
2023-07-26T12:43:55.741Z,47.14
2023-07-26T12:46:23.423Z,47.65
2023-07-26T12:48:53.835Z,48.07
2023-07-26T12:51:20.786Z,47.96
2023-07-26T12:53:47.895Z,47.71
2023-07-26T12:56:14.972Z,47.30
2023-07-26T12:58:56.625Z,47.33
2023-07-26T13:01:28.950Z,47.17
2023-07-26T13:03:56.047Z,47.05
2023-07-26T13:06:23.060Z,46.57
2023-07-26T13:08:50.068Z,41.42
2023-07-26T13:11:17.174Z,35.64
2023-07-26T13:13:44.049Z,30.72
2023-07-26T13:16:11.179Z,32.01
2023-07-26T13:18:38.122Z,33.16
2023-07-26T13:21:05.210Z,34.52
2023-07-26T13:23:32.172Z,35.96
2023-07-26T13:25:59.081Z,38.21
2023-07-26T13:28:26.161Z,38.31
2023-07-26T13:30:53.168Z,36.55
2023-07-26T13:33:20.156Z,37.22
2023-07-26T13:35:47.564Z,38.01
2023-07-26T13:38:14.536Z,39.34
2023-07-26T13:40:41.541Z,39.41
2023-07-26T13:43:40.906Z,38.48
2023-07-26T13:46:16.725Z,38.70
2023-07-26T13:48:54.633Z,38.25
2023-07-26T13:51:21.562Z,39.11
2023-07-26T13:53:48.584Z,40.84
2023-07-26T13:56:15.567Z,41.54
2023-07-26T13:58:42.269Z,40.26
2023-07-26T14:01:09.511Z,40.14
2023-07-26T14:03:36.312Z,37.04
2023-07-26T14:06:03.378Z,36.47
2023-07-26T14:08:30.165Z,37.46
2023-07-26T14:10:57.697Z,38.08
2023-07-26T14:13:24.703Z,38.12
2023-07-26T14:15:51.585Z,39.12
2023-07-26T14:18:18.348Z,39.42
2023-07-26T14:20:45.106Z,40.06
2023-07-26T14:23:12.018Z,39.57
2023-07-26T14:25:39.749Z,40.01
2023-07-26T14:28:06.613Z,38.65
2023-07-26T14:30:33.395Z,39.10
2023-07-26T14:33:01.294Z,39.45
2023-07-26T14:35:28.166Z,40.67
2023-07-26T14:37:55.170Z,38.90
2023-07-26T14:40:22.183Z,38.84
2023-07-26T14:42:50.009Z,39.43
2023-07-26T14:45:16.886Z,40.13
2023-07-26T14:47:43.678Z,40.47
2023-07-26T14:50:11.941Z,40.45
2023-07-26T14:52:39.118Z,40.77
2023-07-26T14:55:06.378Z,41.06
2023-07-26T14:57:33.402Z,41.59
2023-07-26T15:00:00.346Z,42.17
2023-07-26T15:02:27.323Z,42.05
2023-07-26T15:04:55.353Z,42.50
2023-07-26T15:07:22.339Z,43.43
2023-07-26T15:09:50.705Z,43.41
2023-07-26T15:12:18.232Z,44.29
2023-07-26T15:14:45.200Z,43.36
2023-07-26T15:17:12.660Z,41.87
2023-07-26T15:19:39.630Z,41.86
2023-07-26T15:22:06.767Z,40.27
2023-07-26T15:24:33.779Z,39.06
2023-07-26T15:27:00.732Z,38.91
2023-07-26T15:29:28.414Z,39.44
2023-07-26T15:31:55.328Z,39.93
2023-07-26T15:34:22.273Z,39.35
2023-07-26T15:36:49.142Z,39.01
2023-07-26T15:39:16.127Z,40.79
2023-07-26T15:44:13.239Z,40.13
2023-07-26T15:46:44.028Z,40.67
2023-07-26T15:49:17.071Z,40.78
2023-07-26T15:51:47.430Z,41.37
2023-07-26T15:54:14.292Z,41.42
2023-07-26T15:56:41.244Z,42.32
2023-07-26T15:59:11.020Z,42.52
2023-07-26T16:01:40.570Z,43.53
2023-07-26T16:04:26.463Z,42.96
2023-07-26T16:21:54.290Z,43.80
2023-07-26T16:24:21.536Z,43.83
2023-07-26T16:26:48.437Z,43.44
2023-07-26T16:29:15.411Z,43.31
2023-07-26T16:31:42.526Z,43.12
2023-07-26T16:34:09.587Z,43.87
2023-07-26T16:36:36.660Z,43.70
2023-07-26T16:39:03.607Z,43.80
2023-07-26T16:41:31.522Z,43.11
2023-07-26T16:43:59.017Z,43.55
2023-07-26T16:46:33.503Z,43.58
2023-07-26T16:49:10.327Z,43.62
2023-07-26T16:51:39.458Z,44.30
2023-07-26T16:54:06.344Z,43.85
2023-07-26T16:56:33.688Z,43.61
2023-07-26T16:59:01.041Z,43.34
2023-07-26T17:01:28.061Z,44.16
2023-07-26T17:03:55.071Z,43.32
2023-07-26T17:06:23.263Z,43.77
2023-07-26T17:08:50.283Z,44.02
2023-07-26T17:11:17.357Z,45.00
2023-07-26T17:13:44.285Z,44.44
2023-07-26T17:16:16.505Z,44.86
2023-07-26T17:18:48.921Z,45.04
2023-07-26T17:21:17.274Z,44.68
2023-07-26T17:23:45.881Z,45.26
2023-07-26T17:26:12.857Z,44.33
2023-07-26T17:28:39.798Z,45.43
2023-07-26T17:31:06.857Z,45.29
2023-07-26T17:33:35.254Z,45.57
2023-07-26T17:36:12.966Z,45.58
2023-07-26T17:38:40.068Z,45.87
2023-07-26T17:41:07.324Z,45.70
2023-07-26T17:43:36.389Z,46.21
2023-07-26T17:46:04.541Z,45.90
2023-07-26T17:48:31.817Z,46.64
2023-07-26T17:51:00.960Z,46.73
2023-07-26T17:53:28.944Z,47.02
2023-07-26T17:55:56.162Z,46.58
2023-07-26T17:58:23.062Z,46.57
2023-07-26T18:00:50.255Z,46.72
2023-07-26T18:03:17.321Z,47.00
2023-07-26T18:05:47.396Z,46.99
2023-07-26T18:08:17.674Z,46.46
2023-07-26T18:10:44.928Z,46.59
2023-07-26T18:13:11.962Z,46.84
2023-07-26T18:15:39.299Z,46.87
2023-07-26T18:18:06.752Z,46.54
2023-07-26T18:20:33.645Z,47.06
2023-07-26T18:23:00.517Z,47.41
2023-07-26T18:25:27.558Z,47.94
2023-07-26T18:27:57.097Z,48.19
2023-07-26T18:30:24.013Z,48.33
2023-07-26T18:32:51.005Z,48.73
2023-07-26T18:35:18.122Z,48.60
2023-07-26T18:37:45.525Z,48.70
2023-07-26T18:40:12.802Z,48.93
2023-07-26T18:42:52.726Z,48.89
2023-07-26T18:45:20.371Z,48.99
2023-07-26T18:47:48.323Z,49.16
2023-07-26T18:50:15.200Z,49.67
2023-07-26T18:52:42.104Z,49.69
2023-07-26T18:55:09.306Z,49.91
2023-07-26T18:57:46.130Z,50.29
2023-07-26T19:00:15.010Z,50.53
2023-07-26T19:02:42.255Z,51.08
2023-07-26T19:05:09.425Z,52.10
2023-07-26T19:07:36.760Z,52.00
2023-07-26T19:10:44.273Z,52.31
2023-07-26T19:13:19.045Z,52.22
2023-07-26T19:15:46.060Z,52.58
2023-07-26T19:18:17.216Z,52.56
2023-07-26T19:20:46.036Z,52.59
2023-07-26T19:23:14.791Z,52.70
2023-07-26T19:25:42.906Z,53.21
2023-07-26T19:28:09.770Z,53.44
2023-07-26T19:30:36.777Z,54.27
2023-07-26T19:33:04.176Z,54.55
2023-07-26T19:35:31.348Z,54.87
2023-07-26T19:37:59.014Z,55.17
2023-07-26T19:40:26.631Z,55.14
2023-07-26T19:42:55.130Z,55.37
2023-07-26T19:45:22.690Z,55.52
2023-07-26T19:47:49.770Z,55.20
2023-07-26T19:50:16.916Z,55.32
2023-07-26T19:52:44.831Z,55.22
2023-07-26T19:55:15.325Z,55.32
2023-07-26T19:57:43.435Z,55.15
2023-07-26T20:00:18.452Z,55.34
2023-07-26T20:02:45.603Z,56.11
2023-07-26T20:05:12.694Z,56.19
2023-07-26T20:07:39.586Z,56.29
2023-07-26T20:10:08.079Z,57.00
2023-07-26T20:12:39.157Z,56.97
2023-07-26T20:15:09.257Z,56.97
2023-07-26T20:17:36.962Z,56.88
2023-07-26T20:20:07.889Z,57.56
2023-07-26T20:22:35.943Z,57.67
2023-07-26T20:25:03.641Z,57.55
2023-07-26T20:27:30.856Z,57.71
2023-07-26T20:30:00.033Z,57.75
2023-07-26T20:32:28.619Z,57.78
2023-07-26T20:34:56.388Z,57.88
2023-07-26T20:37:24.972Z,58.69
2023-07-26T20:39:57.097Z,59.23
2023-07-26T20:42:28.872Z,59.44
2023-07-26T20:44:56.800Z,60.03
2023-07-26T20:47:24.099Z,60.39
2023-07-26T20:49:51.309Z,60.74
2023-07-26T20:52:18.853Z,60.77
2023-07-26T20:54:45.837Z,60.98
2023-07-26T20:57:13.025Z,60.80
2023-07-26T20:59:39.983Z,61.32
2023-07-26T21:02:08.813Z,61.17
2023-07-26T21:04:35.896Z,61.74
2023-07-26T21:07:03.771Z,61.57
2023-07-26T21:09:30.858Z,61.75
2023-07-26T21:11:57.672Z,61.77
2023-07-26T21:14:24.612Z,62.03
2023-07-26T21:16:51.724Z,62.40
2023-07-26T21:19:18.806Z,62.35
2023-07-26T21:21:45.743Z,62.53
2023-07-26T21:24:12.653Z,62.34
2023-07-26T21:26:39.583Z,62.40
2023-07-26T21:29:06.637Z,62.60
2023-07-26T21:31:33.545Z,62.74
2023-07-26T21:34:00.354Z,62.97
2023-07-26T21:36:27.277Z,63.18
2023-07-26T21:38:54.343Z,63.03
2023-07-26T21:41:21.171Z,63.09
2023-07-26T21:43:47.914Z,63.02
2023-07-26T21:46:14.794Z,62.96
2023-07-26T21:48:41.596Z,63.16
2023-07-26T21:51:08.464Z,63.21
2023-07-26T21:53:35.226Z,62.92
2023-07-26T21:56:03.459Z,63.07
2023-07-26T21:58:30.261Z,63.17
2023-07-26T22:00:56.974Z,63.40
2023-07-26T22:03:23.731Z,63.78
2023-07-26T22:05:53.938Z,64.31
2023-07-26T22:08:23.453Z,65.09
2023-07-26T22:10:50.250Z,65.16
2023-07-26T22:13:17.097Z,64.83
2023-07-26T22:15:46.886Z,64.77
2023-07-26T22:18:13.939Z,64.26
2023-07-26T22:20:56.758Z,64.90
2023-07-26T22:23:29.372Z,64.75
2023-07-26T22:26:07.378Z,65.03
2023-07-26T22:28:39.613Z,64.80
2023-07-26T22:31:06.401Z,65.09
2023-07-26T22:33:33.135Z,64.79
2023-07-26T22:36:03.545Z,64.30
2023-07-26T22:38:30.596Z,64.76
2023-07-26T22:40:57.484Z,65.50
2023-07-26T22:43:24.207Z,66.11
2023-07-26T22:45:51.218Z,66.42
2023-07-26T22:48:17.988Z,67.17
2023-07-26T22:50:44.761Z,67.47
2023-07-26T22:53:11.477Z,67.56
2023-07-26T22:55:38.459Z,67.30
2023-07-26T22:58:06.476Z,67.56
2023-07-26T23:00:33.582Z,67.57
2023-07-26T23:03:00.560Z,67.33
2023-07-26T23:05:27.451Z,66.87
2023-07-26T23:07:54.175Z,66.86
2023-07-26T23:10:21.702Z,66.51
2023-07-26T23:12:48.649Z,66.61
2023-07-26T23:15:15.649Z,66.28
2023-07-26T23:17:42.494Z,66.09
2023-07-26T23:20:09.869Z,65.83
2023-07-26T23:22:37.632Z,65.94
2023-07-26T23:25:05.227Z,66.13
2023-07-26T23:27:31.995Z,66.19
2023-07-26T23:29:59.744Z,66.08
2023-07-26T23:32:26.723Z,66.23
2023-07-26T23:34:53.730Z,65.96
2023-07-26T23:37:20.465Z,66.34
2023-07-26T23:39:47.210Z,66.19
2023-07-26T23:42:13.986Z,65.78
2023-07-26T23:44:40.905Z,65.70
2023-07-26T23:47:07.787Z,65.62
2023-07-26T23:49:35.926Z,65.51
2023-07-26T23:52:03.136Z,65.02
2023-07-26T23:54:29.955Z,64.61
2023-07-26T23:56:56.728Z,64.58
2023-07-26T23:59:23.448Z,64.04
